sensor_id;sensor_type;location;lat;lon;timestamp;temperature;humidity
74488;DHT22;63019;51.080;13.642;2023-10-19T00:00:53;8.10;97.90
74488;DHT22;63019;51.080;13.642;2023-10-19T00:01:58;8.10;97.60
74488;DHT22;63019;51.080;13.642;2023-10-19T00:03:01;8.10;97.70
74488;DHT22;63019;51.080;13.642;2023-10-19T00:04:04;8.20;97.80
74488;DHT22;63019;51.080;13.642;2023-10-19T00:05:08;8.10;97.70
74488;DHT22;63019;51.080;13.642;2023-10-19T00:06:14;8.10;97.60
74488;DHT22;63019;51.080;13.642;2023-10-19T00:07:16;8.10;97.80
74488;DHT22;63019;51.080;13.642;2023-10-19T00:08:18;8.20;97.80
74488;DHT22;63019;51.080;13.642;2023-10-19T00:09:22;8.10;97.70
74488;DHT22;63019;51.080;13.642;2023-10-19T00:10:24;8.10;97.80
74488;DHT22;63019;51.080;13.642;2023-10-19T00:11:30;8.10;97.70
74488;DHT22;63019;51.080;13.642;2023-10-19T00:12:32;8.10;97.70
74488;DHT22;63019;51.080;13.642;2023-10-19T00:13:36;8.20;97.60
74488;DHT22;63019;51.080;13.642;2023-10-19T00:14:40;8.20;97.70
74488;DHT22;63019;51.080;13.642;2023-10-19T00:15:42;8.20;97.70
74488;DHT22;63019;51.080;13.642;2023-10-19T00:16:55;8.20;97.70
74488;DHT22;63019;51.080;13.642;2023-10-19T00:18:02;8.20;97.80
74488;DHT22;63019;51.080;13.642;2023-10-19T00:19:22;8.20;97.80
74488;DHT22;63019;51.080;13.642;2023-10-19T00:20:29;8.20;97.70
74488;DHT22;63019;51.080;13.642;2023-10-19T00:21:31;8.20;97.50
74488;DHT22;63019;51.080;13.642;2023-10-19T00:22:50;8.20;97.50
74488;DHT22;63019;51.080;13.642;2023-10-19T00:23:56;8.20;97.40
74488;DHT22;63019;51.080;13.642;2023-10-19T00:25:06;8.30;97.50
74488;DHT22;63019;51.080;13.642;2023-10-19T00:26:10;8.30;97.40
74488;DHT22;63019;51.080;13.642;2023-10-19T00:27:17;8.30;97.30
74488;DHT22;63019;51.080;13.642;2023-10-19T00:28:21;8.30;97.20
74488;DHT22;63019;51.080;13.642;2023-10-19T00:29:24;8.30;97.10
74488;DHT22;63019;51.080;13.642;2023-10-19T00:30:32;8.30;97.10
74488;DHT22;63019;51.080;13.642;2023-10-19T00:31:37;8.30;97.10
74488;DHT22;63019;51.080;13.642;2023-10-19T00:32:42;8.30;97.10
74488;DHT22;63019;51.080;13.642;2023-10-19T00:33:44;8.30;97.20
74488;DHT22;63019;51.080;13.642;2023-10-19T00:34:47;8.30;97.10
74488;DHT22;63019;51.080;13.642;2023-10-19T00:35:55;8.30;97.30
74488;DHT22;63019;51.080;13.642;2023-10-19T00:37:07;8.30;97.30
74488;DHT22;63019;51.080;13.642;2023-10-19T00:38:09;8.30;97.00
74488;DHT22;63019;51.080;13.642;2023-10-19T00:39:28;8.40;97.10
74488;DHT22;63019;51.080;13.642;2023-10-19T00:40:41;8.30;97.10
74488;DHT22;63019;51.080;13.642;2023-10-19T00:41:49;8.30;97.00
74488;DHT22;63019;51.080;13.642;2023-10-19T00:42:51;8.30;97.00
74488;DHT22;63019;51.080;13.642;2023-10-19T00:43:59;8.30;97.00
74488;DHT22;63019;51.080;13.642;2023-10-19T00:45:13;8.30;97.10
74488;DHT22;63019;51.080;13.642;2023-10-19T00:46:18;8.40;97.10
74488;DHT22;63019;51.080;13.642;2023-10-19T00:47:25;8.40;97.40
74488;DHT22;63019;51.080;13.642;2023-10-19T00:48:32;8.40;96.90
74488;DHT22;63019;51.080;13.642;2023-10-19T00:49:36;8.40;97.10
74488;DHT22;63019;51.080;13.642;2023-10-19T00:50:40;8.40;97.20
74488;DHT22;63019;51.080;13.642;2023-10-19T00:51:48;8.40;97.30
74488;DHT22;63019;51.080;13.642;2023-10-19T00:53:09;8.40;97.10
74488;DHT22;63019;51.080;13.642;2023-10-19T00:54:17;8.40;97.00
74488;DHT22;63019;51.080;13.642;2023-10-19T00:55:24;8.40;96.90
74488;DHT22;63019;51.080;13.642;2023-10-19T00:56:28;8.40;97.00
74488;DHT22;63019;51.080;13.642;2023-10-19T00:57:34;8.40;96.80
74488;DHT22;63019;51.080;13.642;2023-10-19T00:58:38;8.50;96.90
74488;DHT22;63019;51.080;13.642;2023-10-19T00:59:43;8.50;96.90
74488;DHT22;63019;51.080;13.642;2023-10-19T01:00:49;8.50;96.90
74488;DHT22;63019;51.080;13.642;2023-10-19T01:01:53;8.50;96.80
74488;DHT22;63019;51.080;13.642;2023-10-19T01:02:57;8.50;96.90
74488;DHT22;63019;51.080;13.642;2023-10-19T01:04:02;8.50;96.90
74488;DHT22;63019;51.080;13.642;2023-10-19T01:05:06;8.50;96.90
74488;DHT22;63019;51.080;13.642;2023-10-19T01:06:08;8.50;96.70
74488;DHT22;63019;51.080;13.642;2023-10-19T01:07:19;8.50;96.90
74488;DHT22;63019;51.080;13.642;2023-10-19T01:08:24;8.50;96.70
74488;DHT22;63019;51.080;13.642;2023-10-19T01:09:32;8.50;96.60
74488;DHT22;63019;51.080;13.642;2023-10-19T01:10:38;8.60;96.60
74488;DHT22;63019;51.080;13.642;2023-10-19T01:11:42;8.50;96.70
74488;DHT22;63019;51.080;13.642;2023-10-19T01:12:47;8.50;96.80
74488;DHT22;63019;51.080;13.642;2023-10-19T01:13:49;8.60;96.60
74488;DHT22;63019;51.080;13.642;2023-10-19T01:16:15;8.50;96.70
74488;DHT22;63019;51.080;13.642;2023-10-19T01:17:23;8.50;96.80
74488;DHT22;63019;51.080;13.642;2023-10-19T01:18:27;8.50;96.70
74488;DHT22;63019;51.080;13.642;2023-10-19T01:19:31;8.60;96.70
74488;DHT22;63019;51.080;13.642;2023-10-19T01:20:33;8.60;96.70
74488;DHT22;63019;51.080;13.642;2023-10-19T01:21:45;8.60;96.90
74488;DHT22;63019;51.080;13.642;2023-10-19T01:22:52;8.60;96.80
74488;DHT22;63019;51.080;13.642;2023-10-19T01:24:20;8.60;96.90
74488;DHT22;63019;51.080;13.642;2023-10-19T01:27:04;8.60;96.80
74488;DHT22;63019;51.080;13.642;2023-10-19T01:28:08;8.60;96.70
74488;DHT22;63019;51.080;13.642;2023-10-19T01:29:10;8.60;96.70
74488;DHT22;63019;51.080;13.642;2023-10-19T01:30:17;8.50;96.80
74488;DHT22;63019;51.080;13.642;2023-10-19T01:31:21;8.60;97.00
74488;DHT22;63019;51.080;13.642;2023-10-19T01:32:30;8.50;96.80
74488;DHT22;63019;51.080;13.642;2023-10-19T01:33:32;8.60;96.70
74488;DHT22;63019;51.080;13.642;2023-10-19T01:34:35;8.60;96.80
74488;DHT22;63019;51.080;13.642;2023-10-19T01:35:39;8.60;97.20
74488;DHT22;63019;51.080;13.642;2023-10-19T01:37:00;8.60;96.90
74488;DHT22;63019;51.080;13.642;2023-10-19T01:38:06;8.60;96.80
74488;DHT22;63019;51.080;13.642;2023-10-19T01:39:09;8.60;96.70
74488;DHT22;63019;51.080;13.642;2023-10-19T01:40:12;8.70;96.70
74488;DHT22;63019;51.080;13.642;2023-10-19T01:41:23;8.70;96.80
74488;DHT22;63019;51.080;13.642;2023-10-19T01:42:25;8.60;96.90
74488;DHT22;63019;51.080;13.642;2023-10-19T01:43:27;8.70;96.80
74488;DHT22;63019;51.080;13.642;2023-10-19T01:44:33;8.70;97.10
74488;DHT22;63019;51.080;13.642;2023-10-19T01:45:37;8.60;96.90
74488;DHT22;63019;51.080;13.642;2023-10-19T01:46:40;8.70;97.00
74488;DHT22;63019;51.080;13.642;2023-10-19T01:47:42;8.70;97.00
74488;DHT22;63019;51.080;13.642;2023-10-19T01:48:44;8.70;96.80
74488;DHT22;63019;51.080;13.642;2023-10-19T01:49:46;8.70;96.90
74488;DHT22;63019;51.080;13.642;2023-10-19T01:50:54;8.70;96.80
74488;DHT22;63019;51.080;13.642;2023-10-19T01:51:56;8.70;96.80
74488;DHT22;63019;51.080;13.642;2023-10-19T01:52:58;8.80;96.70
74488;DHT22;63019;51.080;13.642;2023-10-19T01:54:00;8.80;96.90
74488;DHT22;63019;51.080;13.642;2023-10-19T01:55:05;8.80;97.00
74488;DHT22;63019;51.080;13.642;2023-10-19T01:56:11;8.80;96.90
74488;DHT22;63019;51.080;13.642;2023-10-19T01:57:14;8.80;97.00
74488;DHT22;63019;51.080;13.642;2023-10-19T01:58:17;8.80;97.10
74488;DHT22;63019;51.080;13.642;2023-10-19T01:59:19;8.80;96.90
74488;DHT22;63019;51.080;13.642;2023-10-19T02:00:20;8.80;96.90
74488;DHT22;63019;51.080;13.642;2023-10-19T02:01:25;8.80;97.00
74488;DHT22;63019;51.080;13.642;2023-10-19T02:02:27;8.80;97.10
74488;DHT22;63019;51.080;13.642;2023-10-19T02:03:30;8.80;97.00
74488;DHT22;63019;51.080;13.642;2023-10-19T02:04:34;8.80;97.10
74488;DHT22;63019;51.080;13.642;2023-10-19T02:05:37;8.80;97.00
74488;DHT22;63019;51.080;13.642;2023-10-19T02:06:43;8.80;97.00
74488;DHT22;63019;51.080;13.642;2023-10-19T02:07:48;8.80;96.90
74488;DHT22;63019;51.080;13.642;2023-10-19T02:09:58;8.80;97.00
74488;DHT22;63019;51.080;13.642;2023-10-19T02:11:00;8.80;97.00
74488;DHT22;63019;51.080;13.642;2023-10-19T02:12:04;8.80;96.90
74488;DHT22;63019;51.080;13.642;2023-10-19T02:13:08;8.80;96.80
74488;DHT22;63019;51.080;13.642;2023-10-19T02:14:13;8.80;96.80
74488;DHT22;63019;51.080;13.642;2023-10-19T02:15:17;8.80;96.90
74488;DHT22;63019;51.080;13.642;2023-10-19T02:16:20;8.80;97.00
74488;DHT22;63019;51.080;13.642;2023-10-19T02:17:24;8.90;97.00
74488;DHT22;63019;51.080;13.642;2023-10-19T02:18:26;8.90;97.10
74488;DHT22;63019;51.080;13.642;2023-10-19T02:19:29;8.80;97.00
74488;DHT22;63019;51.080;13.642;2023-10-19T02:20:31;8.80;96.70
74488;DHT22;63019;51.080;13.642;2023-10-19T02:21:42;8.90;96.80
74488;DHT22;63019;51.080;13.642;2023-10-19T02:22:44;8.90;96.80
74488;DHT22;63019;51.080;13.642;2023-10-19T02:23:46;8.90;96.80
74488;DHT22;63019;51.080;13.642;2023-10-19T02:24:48;8.90;96.70
74488;DHT22;63019;51.080;13.642;2023-10-19T02:25:50;8.90;96.90
74488;DHT22;63019;51.080;13.642;2023-10-19T02:26:54;8.90;96.90
74488;DHT22;63019;51.080;13.642;2023-10-19T02:27:56;8.90;97.00
74488;DHT22;63019;51.080;13.642;2023-10-19T02:28:58;8.90;96.80
74488;DHT22;63019;51.080;13.642;2023-10-19T02:30:01;8.90;96.90
74488;DHT22;63019;51.080;13.642;2023-10-19T02:31:04;8.90;97.00
74488;DHT22;63019;51.080;13.642;2023-10-19T02:32:21;8.90;97.00
74488;DHT22;63019;51.080;13.642;2023-10-19T02:33:23;8.90;96.90
74488;DHT22;63019;51.080;13.642;2023-10-19T02:34:28;9.00;96.70
74488;DHT22;63019;51.080;13.642;2023-10-19T02:35:30;9.00;96.50
74488;DHT22;63019;51.080;13.642;2023-10-19T02:36:32;9.00;96.60
74488;DHT22;63019;51.080;13.642;2023-10-19T02:37:35;9.00;96.60
74488;DHT22;63019;51.080;13.642;2023-10-19T02:38:37;9.00;96.70
74488;DHT22;63019;51.080;13.642;2023-10-19T02:39:38;9.00;96.80
74488;DHT22;63019;51.080;13.642;2023-10-19T02:40:43;9.00;96.70
74488;DHT22;63019;51.080;13.642;2023-10-19T02:41:48;9.00;96.80
74488;DHT22;63019;51.080;13.642;2023-10-19T02:42:50;9.00;96.60
74488;DHT22;63019;51.080;13.642;2023-10-19T02:43:53;9.00;96.80
74488;DHT22;63019;51.080;13.642;2023-10-19T02:45:11;9.00;96.60
74488;DHT22;63019;51.080;13.642;2023-10-19T02:46:14;9.00;96.70
74488;DHT22;63019;51.080;13.642;2023-10-19T02:47:16;9.00;96.80
74488;DHT22;63019;51.080;13.642;2023-10-19T02:48:19;9.00;96.80
74488;DHT22;63019;51.080;13.642;2023-10-19T02:49:21;9.00;96.80
74488;DHT22;63019;51.080;13.642;2023-10-19T02:50:24;9.00;96.80
74488;DHT22;63019;51.080;13.642;2023-10-19T02:51:28;9.00;96.90
74488;DHT22;63019;51.080;13.642;2023-10-19T02:52:31;9.00;96.70
74488;DHT22;63019;51.080;13.642;2023-10-19T02:53:33;9.00;96.50
74488;DHT22;63019;51.080;13.642;2023-10-19T02:54:35;9.10;96.70
74488;DHT22;63019;51.080;13.642;2023-10-19T02:55:37;9.00;96.60
74488;DHT22;63019;51.080;13.642;2023-10-19T02:56:42;9.00;96.60
74488;DHT22;63019;51.080;13.642;2023-10-19T02:57:44;9.00;96.80
74488;DHT22;63019;51.080;13.642;2023-10-19T02:58:51;9.00;96.80
74488;DHT22;63019;51.080;13.642;2023-10-19T02:59:53;9.00;96.80
74488;DHT22;63019;51.080;13.642;2023-10-19T03:00:55;9.00;96.90
74488;DHT22;63019;51.080;13.642;2023-10-19T03:01:59;9.00;96.80
74488;DHT22;63019;51.080;13.642;2023-10-19T03:03:13;9.00;96.70
74488;DHT22;63019;51.080;13.642;2023-10-19T03:04:18;9.00;96.80
74488;DHT22;63019;51.080;13.642;2023-10-19T03:05:22;9.00;96.90
74488;DHT22;63019;51.080;13.642;2023-10-19T03:06:26;9.00;96.90
74488;DHT22;63019;51.080;13.642;2023-10-19T03:07:34;9.00;97.00
74488;DHT22;63019;51.080;13.642;2023-10-19T03:08:35;9.00;96.90
74488;DHT22;63019;51.080;13.642;2023-10-19T03:09:37;9.00;97.30
74488;DHT22;63019;51.080;13.642;2023-10-19T03:10:40;9.00;97.10
74488;DHT22;63019;51.080;13.642;2023-10-19T03:11:45;9.00;97.30
74488;DHT22;63019;51.080;13.642;2023-10-19T03:12:47;9.00;97.40
74488;DHT22;63019;51.080;13.642;2023-10-19T03:13:48;9.00;97.60
74488;DHT22;63019;51.080;13.642;2023-10-19T03:14:51;9.00;97.60
74488;DHT22;63019;51.080;13.642;2023-10-19T03:15:53;9.00;97.80
74488;DHT22;63019;51.080;13.642;2023-10-19T03:16:57;9.00;98.30
74488;DHT22;63019;51.080;13.642;2023-10-19T03:17:59;8.90;98.20
74488;DHT22;63019;51.080;13.642;2023-10-19T03:19:03;9.00;98.50
74488;DHT22;63019;51.080;13.642;2023-10-19T03:20:06;9.00;99.00
74488;DHT22;63019;51.080;13.642;2023-10-19T03:21:10;9.00;99.20
74488;DHT22;63019;51.080;13.642;2023-10-19T03:22:12;9.00;99.20
74488;DHT22;63019;51.080;13.642;2023-10-19T03:23:16;8.90;99.00
74488;DHT22;63019;51.080;13.642;2023-10-19T03:24:19;8.90;98.90
74488;DHT22;63019;51.080;13.642;2023-10-19T03:25:39;8.90;99.40
74488;DHT22;63019;51.080;13.642;2023-10-19T03:26:52;8.90;99.60
74488;DHT22;63019;51.080;13.642;2023-10-19T03:27:56;8.90;99.60
74488;DHT22;63019;51.080;13.642;2023-10-19T03:28:58;8.90;99.90
74488;DHT22;63019;51.080;13.642;2023-10-19T03:30:05;8.90;99.80
74488;DHT22;63019;51.080;13.642;2023-10-19T03:31:07;8.90;99.80
74488;DHT22;63019;51.080;13.642;2023-10-19T03:32:09;8.90;99.90
74488;DHT22;63019;51.080;13.642;2023-10-19T03:33:11;8.80;99.90
74488;DHT22;63019;51.080;13.642;2023-10-19T03:34:15;8.80;99.90
74488;DHT22;63019;51.080;13.642;2023-10-19T03:35:20;8.80;99.90
74488;DHT22;63019;51.080;13.642;2023-10-19T03:36:23;8.80;99.90
74488;DHT22;63019;51.080;13.642;2023-10-19T03:37:26;8.80;99.90
74488;DHT22;63019;51.080;13.642;2023-10-19T03:38:31;8.80;99.90
74488;DHT22;63019;51.080;13.642;2023-10-19T03:39:36;8.70;99.90
74488;DHT22;63019;51.080;13.642;2023-10-19T03:40:40;8.70;99.90
74488;DHT22;63019;51.080;13.642;2023-10-19T03:41:42;8.70;99.90
74488;DHT22;63019;51.080;13.642;2023-10-19T03:42:44;8.70;99.90
74488;DHT22;63019;51.080;13.642;2023-10-19T03:43:48;8.70;99.90
74488;DHT22;63019;51.080;13.642;2023-10-19T03:44:53;8.70;99.90
74488;DHT22;63019;51.080;13.642;2023-10-19T03:45:59;8.70;99.90
74488;DHT22;63019;51.080;13.642;2023-10-19T03:47:06;8.70;99.90
74488;DHT22;63019;51.080;13.642;2023-10-19T03:48:13;8.70;99.90
74488;DHT22;63019;51.080;13.642;2023-10-19T03:49:18;8.60;99.90
74488;DHT22;63019;51.080;13.642;2023-10-19T03:50:21;8.60;99.90
74488;DHT22;63019;51.080;13.642;2023-10-19T03:51:23;8.60;99.90
74488;DHT22;63019;51.080;13.642;2023-10-19T03:52:27;8.60;99.90
74488;DHT22;63019;51.080;13.642;2023-10-19T03:53:32;8.60;99.90
74488;DHT22;63019;51.080;13.642;2023-10-19T03:54:34;8.60;99.90
74488;DHT22;63019;51.080;13.642;2023-10-19T03:55:41;8.60;99.90
74488;DHT22;63019;51.080;13.642;2023-10-19T03:56:45;8.60;99.90
74488;DHT22;63019;51.080;13.642;2023-10-19T03:57:47;8.50;99.90
74488;DHT22;63019;51.080;13.642;2023-10-19T03:58:52;8.50;99.90
74488;DHT22;63019;51.080;13.642;2023-10-19T03:59:54;8.50;99.90
74488;DHT22;63019;51.080;13.642;2023-10-19T04:00:59;8.50;99.90
74488;DHT22;63019;51.080;13.642;2023-10-19T04:02:09;8.50;99.90
74488;DHT22;63019;51.080;13.642;2023-10-19T04:03:15;8.50;99.90
74488;DHT22;63019;51.080;13.642;2023-10-19T04:04:22;8.50;99.90
74488;DHT22;63019;51.080;13.642;2023-10-19T04:05:24;8.50;99.90
74488;DHT22;63019;51.080;13.642;2023-10-19T04:06:30;8.40;99.90
74488;DHT22;63019;51.080;13.642;2023-10-19T04:07:32;8.40;99.90
74488;DHT22;63019;51.080;13.642;2023-10-19T04:08:34;8.40;99.90
74488;DHT22;63019;51.080;13.642;2023-10-19T04:09:39;8.40;99.90
74488;DHT22;63019;51.080;13.642;2023-10-19T04:10:59;8.40;99.90
74488;DHT22;63019;51.080;13.642;2023-10-19T04:12:30;8.40;99.90
74488;DHT22;63019;51.080;13.642;2023-10-19T04:13:33;8.30;99.90
74488;DHT22;63019;51.080;13.642;2023-10-19T04:14:34;8.20;99.90
74488;DHT22;63019;51.080;13.642;2023-10-19T04:15:37;8.20;99.90
74488;DHT22;63019;51.080;13.642;2023-10-19T04:16:38;8.20;99.90
74488;DHT22;63019;51.080;13.642;2023-10-19T04:17:46;8.20;99.90
74488;DHT22;63019;51.080;13.642;2023-10-19T04:18:48;8.20;99.90
74488;DHT22;63019;51.080;13.642;2023-10-19T04:19:51;8.10;99.90
74488;DHT22;63019;51.080;13.642;2023-10-19T04:20:53;8.10;99.90
74488;DHT22;63019;51.080;13.642;2023-10-19T04:21:55;8.10;99.90
74488;DHT22;63019;51.080;13.642;2023-10-19T04:22:57;8.10;99.90
74488;DHT22;63019;51.080;13.642;2023-10-19T04:24:00;8.10;99.90
74488;DHT22;63019;51.080;13.642;2023-10-19T04:25:02;8.00;99.90
74488;DHT22;63019;51.080;13.642;2023-10-19T04:26:07;8.00;99.90
74488;DHT22;63019;51.080;13.642;2023-10-19T04:27:12;8.00;99.90
74488;DHT22;63019;51.080;13.642;2023-10-19T04:28:15;8.00;99.90
74488;DHT22;63019;51.080;13.642;2023-10-19T04:29:17;7.90;99.90
74488;DHT22;63019;51.080;13.642;2023-10-19T04:30:20;7.90;99.90
74488;DHT22;63019;51.080;13.642;2023-10-19T04:31:28;7.90;99.90
74488;DHT22;63019;51.080;13.642;2023-10-19T04:32:30;7.90;99.90
74488;DHT22;63019;51.080;13.642;2023-10-19T04:33:33;7.90;99.90
74488;DHT22;63019;51.080;13.642;2023-10-19T04:34:36;7.90;99.90
74488;DHT22;63019;51.080;13.642;2023-10-19T04:35:51;7.90;99.90
74488;DHT22;63019;51.080;13.642;2023-10-19T04:37:02;7.90;99.90
74488;DHT22;63019;51.080;13.642;2023-10-19T04:38:05;7.90;99.90
74488;DHT22;63019;51.080;13.642;2023-10-19T04:39:09;7.80;99.90
74488;DHT22;63019;51.080;13.642;2023-10-19T04:40:15;7.80;99.90
74488;DHT22;63019;51.080;13.642;2023-10-19T04:41:17;7.80;99.90
74488;DHT22;63019;51.080;13.642;2023-10-19T04:42:19;7.80;99.90
74488;DHT22;63019;51.080;13.642;2023-10-19T04:43:24;7.80;99.90
74488;DHT22;63019;51.080;13.642;2023-10-19T04:44:26;7.80;99.90
74488;DHT22;63019;51.080;13.642;2023-10-19T04:45:28;7.80;99.90
74488;DHT22;63019;51.080;13.642;2023-10-19T04:46:31;7.70;99.90
74488;DHT22;63019;51.080;13.642;2023-10-19T04:47:33;7.80;99.90
74488;DHT22;63019;51.080;13.642;2023-10-19T04:48:41;7.80;99.90
74488;DHT22;63019;51.080;13.642;2023-10-19T04:49:44;7.70;99.90
74488;DHT22;63019;51.080;13.642;2023-10-19T04:50:46;7.70;99.90
74488;DHT22;63019;51.080;13.642;2023-10-19T04:51:48;7.70;99.90
74488;DHT22;63019;51.080;13.642;2023-10-19T04:52:50;7.70;99.90
74488;DHT22;63019;51.080;13.642;2023-10-19T04:53:52;7.70;99.90
74488;DHT22;63019;51.080;13.642;2023-10-19T04:54:54;7.70;99.90
74488;DHT22;63019;51.080;13.642;2023-10-19T04:55:55;7.70;99.90
74488;DHT22;63019;51.080;13.642;2023-10-19T04:56:57;7.70;99.90
74488;DHT22;63019;51.080;13.642;2023-10-19T04:58:02;7.70;99.90
74488;DHT22;63019;51.080;13.642;2023-10-19T04:59:04;7.70;99.90
74488;DHT22;63019;51.080;13.642;2023-10-19T05:00:07;7.70;99.90
74488;DHT22;63019;51.080;13.642;2023-10-19T05:01:20;7.60;99.90
74488;DHT22;63019;51.080;13.642;2023-10-19T05:02:22;7.70;99.90
74488;DHT22;63019;51.080;13.642;2023-10-19T05:03:25;7.60;99.90
74488;DHT22;63019;51.080;13.642;2023-10-19T05:04:28;7.60;99.90
74488;DHT22;63019;51.080;13.642;2023-10-19T05:05:31;7.60;99.90
74488;DHT22;63019;51.080;13.642;2023-10-19T05:06:33;7.60;99.90
74488;DHT22;63019;51.080;13.642;2023-10-19T05:07:35;7.60;99.90
74488;DHT22;63019;51.080;13.642;2023-10-19T05:08:37;7.60;99.90
74488;DHT22;63019;51.080;13.642;2023-10-19T05:09:39;7.60;99.90
74488;DHT22;63019;51.080;13.642;2023-10-19T05:10:41;7.60;99.90
74488;DHT22;63019;51.080;13.642;2023-10-19T05:11:43;7.50;99.90
74488;DHT22;63019;51.080;13.642;2023-10-19T05:12:47;7.50;99.90
74488;DHT22;63019;51.080;13.642;2023-10-19T05:13:49;7.60;99.90
74488;DHT22;63019;51.080;13.642;2023-10-19T05:14:51;7.50;99.90
74488;DHT22;63019;51.080;13.642;2023-10-19T05:15:54;7.50;99.90
74488;DHT22;63019;51.080;13.642;2023-10-19T05:16:56;7.50;99.90
74488;DHT22;63019;51.080;13.642;2023-10-19T05:17:58;7.50;99.90
74488;DHT22;63019;51.080;13.642;2023-10-19T05:19:00;7.50;99.90
74488;DHT22;63019;51.080;13.642;2023-10-19T05:20:02;7.40;99.90
74488;DHT22;63019;51.080;13.642;2023-10-19T05:21:07;7.40;99.90
74488;DHT22;63019;51.080;13.642;2023-10-19T05:22:09;7.40;99.90
74488;DHT22;63019;51.080;13.642;2023-10-19T05:23:11;7.30;99.90
74488;DHT22;63019;51.080;13.642;2023-10-19T05:24:14;7.40;99.90
74488;DHT22;63019;51.080;13.642;2023-10-19T05:25:16;7.30;99.90
74488;DHT22;63019;51.080;13.642;2023-10-19T05:26:18;7.40;99.90
74488;DHT22;63019;51.080;13.642;2023-10-19T05:27:21;7.40;99.90
74488;DHT22;63019;51.080;13.642;2023-10-19T05:28:23;7.40;99.90
74488;DHT22;63019;51.080;13.642;2023-10-19T05:29:25;7.40;99.90
74488;DHT22;63019;51.080;13.642;2023-10-19T05:30:27;7.40;99.90
74488;DHT22;63019;51.080;13.642;2023-10-19T05:31:29;7.40;99.90
74488;DHT22;63019;51.080;13.642;2023-10-19T05:32:33;7.40;99.90
74488;DHT22;63019;51.080;13.642;2023-10-19T05:33:35;7.40;99.90
74488;DHT22;63019;51.080;13.642;2023-10-19T05:34:37;7.30;99.90
74488;DHT22;63019;51.080;13.642;2023-10-19T05:35:39;7.30;99.90
74488;DHT22;63019;51.080;13.642;2023-10-19T05:36:45;7.30;99.90
74488;DHT22;63019;51.080;13.642;2023-10-19T05:37:50;7.30;99.90
74488;DHT22;63019;51.080;13.642;2023-10-19T05:38:52;7.30;99.90
74488;DHT22;63019;51.080;13.642;2023-10-19T05:39:54;7.30;99.90
74488;DHT22;63019;51.080;13.642;2023-10-19T05:40:57;7.40;99.90
74488;DHT22;63019;51.080;13.642;2023-10-19T05:41:59;7.30;99.90
74488;DHT22;63019;51.080;13.642;2023-10-19T05:43:03;7.30;99.90
74488;DHT22;63019;51.080;13.642;2023-10-19T05:44:05;7.30;99.90
74488;DHT22;63019;51.080;13.642;2023-10-19T05:45:07;7.30;99.90
74488;DHT22;63019;51.080;13.642;2023-10-19T05:46:09;7.30;99.90
74488;DHT22;63019;51.080;13.642;2023-10-19T05:47:12;7.30;99.90
74488;DHT22;63019;51.080;13.642;2023-10-19T05:48:14;7.30;99.90
74488;DHT22;63019;51.080;13.642;2023-10-19T05:49:17;7.30;99.90
74488;DHT22;63019;51.080;13.642;2023-10-19T05:50:19;7.40;99.90
74488;DHT22;63019;51.080;13.642;2023-10-19T05:51:20;7.30;99.90
74488;DHT22;63019;51.080;13.642;2023-10-19T05:52:23;7.30;99.90
74488;DHT22;63019;51.080;13.642;2023-10-19T05:53:25;7.30;99.90
74488;DHT22;63019;51.080;13.642;2023-10-19T05:54:27;7.30;99.90
74488;DHT22;63019;51.080;13.642;2023-10-19T05:55:29;7.40;99.90
74488;DHT22;63019;51.080;13.642;2023-10-19T05:56:31;7.40;99.90
74488;DHT22;63019;51.080;13.642;2023-10-19T05:57:37;7.40;99.90
74488;DHT22;63019;51.080;13.642;2023-10-19T05:58:41;7.40;99.90
74488;DHT22;63019;51.080;13.642;2023-10-19T05:59:43;7.40;99.90
74488;DHT22;63019;51.080;13.642;2023-10-19T06:00:45;7.40;99.90
74488;DHT22;63019;51.080;13.642;2023-10-19T06:01:48;7.40;99.90
74488;DHT22;63019;51.080;13.642;2023-10-19T06:02:50;7.40;99.90
74488;DHT22;63019;51.080;13.642;2023-10-19T06:03:53;7.40;99.90
74488;DHT22;63019;51.080;13.642;2023-10-19T06:04:55;7.40;99.90
74488;DHT22;63019;51.080;13.642;2023-10-19T06:05:59;7.40;99.90
74488;DHT22;63019;51.080;13.642;2023-10-19T06:07:00;7.40;99.90
74488;DHT22;63019;51.080;13.642;2023-10-19T06:08:03;7.40;99.90
74488;DHT22;63019;51.080;13.642;2023-10-19T06:09:06;7.40;99.90
74488;DHT22;63019;51.080;13.642;2023-10-19T06:10:17;7.40;99.90
74488;DHT22;63019;51.080;13.642;2023-10-19T06:11:20;7.40;99.90
74488;DHT22;63019;51.080;13.642;2023-10-19T06:12:22;7.40;99.90
74488;DHT22;63019;51.080;13.642;2023-10-19T06:13:23;7.40;99.90
74488;DHT22;63019;51.080;13.642;2023-10-19T06:14:25;7.40;99.90
74488;DHT22;63019;51.080;13.642;2023-10-19T06:15:27;7.40;99.90
74488;DHT22;63019;51.080;13.642;2023-10-19T06:16:33;7.40;99.90
74488;DHT22;63019;51.080;13.642;2023-10-19T06:17:37;7.40;99.90
74488;DHT22;63019;51.080;13.642;2023-10-19T06:18:40;7.40;99.90
74488;DHT22;63019;51.080;13.642;2023-10-19T06:19:42;7.50;99.90
74488;DHT22;63019;51.080;13.642;2023-10-19T06:20:47;7.40;99.90
74488;DHT22;63019;51.080;13.642;2023-10-19T06:21:50;7.50;99.90
74488;DHT22;63019;51.080;13.642;2023-10-19T06:23:01;7.40;99.90
74488;DHT22;63019;51.080;13.642;2023-10-19T06:24:07;7.50;99.90
74488;DHT22;63019;51.080;13.642;2023-10-19T06:25:09;7.50;99.90
74488;DHT22;63019;51.080;13.642;2023-10-19T06:26:12;7.50;99.90
74488;DHT22;63019;51.080;13.642;2023-10-19T06:27:14;7.50;99.90
74488;DHT22;63019;51.080;13.642;2023-10-19T06:28:16;7.50;99.90
74488;DHT22;63019;51.080;13.642;2023-10-19T06:29:18;7.50;99.90
74488;DHT22;63019;51.080;13.642;2023-10-19T06:30:20;7.50;99.90
74488;DHT22;63019;51.080;13.642;2023-10-19T06:31:25;7.50;99.90
74488;DHT22;63019;51.080;13.642;2023-10-19T06:32:31;7.50;99.90
74488;DHT22;63019;51.080;13.642;2023-10-19T06:33:33;7.50;99.90
74488;DHT22;63019;51.080;13.642;2023-10-19T06:34:35;7.50;99.90
74488;DHT22;63019;51.080;13.642;2023-10-19T06:35:37;7.50;99.90
74488;DHT22;63019;51.080;13.642;2023-10-19T06:36:39;7.50;99.90
74488;DHT22;63019;51.080;13.642;2023-10-19T06:37:41;7.50;99.90
74488;DHT22;63019;51.080;13.642;2023-10-19T06:38:43;7.50;99.90
74488;DHT22;63019;51.080;13.642;2023-10-19T06:39:46;7.50;99.90
74488;DHT22;63019;51.080;13.642;2023-10-19T06:40:47;7.50;99.90
74488;DHT22;63019;51.080;13.642;2023-10-19T06:41:49;7.50;99.90
74488;DHT22;63019;51.080;13.642;2023-10-19T06:42:51;7.50;99.90
74488;DHT22;63019;51.080;13.642;2023-10-19T06:43:54;7.50;99.90
74488;DHT22;63019;51.080;13.642;2023-10-19T06:44:58;7.50;99.90
74488;DHT22;63019;51.080;13.642;2023-10-19T06:46:00;7.50;99.90
74488;DHT22;63019;51.080;13.642;2023-10-19T06:47:02;7.50;99.90
74488;DHT22;63019;51.080;13.642;2023-10-19T06:48:04;7.50;99.90
74488;DHT22;63019;51.080;13.642;2023-10-19T06:49:08;7.50;99.90
74488;DHT22;63019;51.080;13.642;2023-10-19T06:50:12;7.50;99.90